createdAt,value
2023-03-25T00:00:26.473Z,4.23
2023-03-25T00:02:55.190Z,3.60
2023-03-25T00:05:23.724Z,3.80
2023-03-25T00:07:52.828Z,3.63
2023-03-25T00:10:21.500Z,3.63
2023-03-25T00:12:49.840Z,3.30
2023-03-25T00:15:18.374Z,3.20
2023-03-25T00:17:48.181Z,3.30
2023-03-25T00:20:16.626Z,2.47
2023-03-25T00:22:45.074Z,3.07
2023-03-25T00:25:16.538Z,3.83
2023-03-25T00:27:46.473Z,3.50
2023-03-25T00:30:15.752Z,3.27
2023-03-25T00:32:46.403Z,3.40
2023-03-25T00:35:17.764Z,3.67
2023-03-25T00:37:47.902Z,3.30
2023-03-25T00:40:16.299Z,3.77
2023-03-25T00:42:50.305Z,4.03
2023-03-25T00:45:18.952Z,3.13
2023-03-25T00:47:47.367Z,3.83
2023-03-25T00:50:17.186Z,3.53
2023-03-25T00:52:45.668Z,3.10
2023-03-25T00:55:14.009Z,3.23
2023-03-25T00:57:42.520Z,3.30
2023-03-25T01:00:12.479Z,3.60
2023-03-25T01:02:40.956Z,3.00
2023-03-25T01:05:10.362Z,4.27
2023-03-25T01:07:40.154Z,3.40
2023-03-25T01:10:09.174Z,3.00
2023-03-25T01:12:37.692Z,2.70
2023-03-25T01:15:06.491Z,3.53
2023-03-25T01:17:34.883Z,4.10
2023-03-25T01:20:05.984Z,3.40
2023-03-25T01:22:34.371Z,3.60
2023-03-25T01:25:04.135Z,3.63
2023-03-25T01:27:32.479Z,3.17
2023-03-25T01:30:00.872Z,4.90
2023-03-25T01:32:30.540Z,4.00
2023-03-25T01:34:58.927Z,4.53
2023-03-25T01:37:27.427Z,4.67
2023-03-25T01:39:55.805Z,3.23
2023-03-25T01:42:25.595Z,3.57
2023-03-25T01:45:11.634Z,3.37
2023-03-25T01:47:40.170Z,3.80
2023-03-25T01:50:14.811Z,3.83
2023-03-25T01:52:43.934Z,3.37
2023-03-25T01:55:12.350Z,3.33
2023-03-25T01:57:43.876Z,3.53
2023-03-25T02:00:12.997Z,4.23
2023-03-25T02:02:41.450Z,3.93
2023-03-25T02:05:10.652Z,4.67
2023-03-25T02:07:42.832Z,4.23
2023-03-25T02:10:12.105Z,3.90
2023-03-25T02:12:41.007Z,4.03
2023-03-25T02:15:11.807Z,4.43
2023-03-25T02:17:42.345Z,4.40
2023-03-25T02:20:19.430Z,4.87
2023-03-25T02:23:02.980Z,4.60
2023-03-25T02:25:36.299Z,3.77
2023-03-25T02:28:05.580Z,5.10
2023-03-25T02:30:39.797Z,5.03
2023-03-25T02:33:14.311Z,4.50
2023-03-25T02:35:49.769Z,6.00
2023-03-25T02:38:24.810Z,4.30
2023-03-25T02:40:55.741Z,4.40
2023-03-25T02:43:25.141Z,4.87
2023-03-25T02:45:53.906Z,5.73
2023-03-25T02:48:23.375Z,4.87
2023-03-25T02:50:52.949Z,5.47
2023-03-25T02:53:22.140Z,5.70
2023-03-25T02:55:52.176Z,5.20
2023-03-25T02:58:21.596Z,4.80
2023-03-25T03:00:50.264Z,5.17
2023-03-25T03:03:18.859Z,4.70
2023-03-25T03:05:48.133Z,4.93
2023-03-25T03:08:20.592Z,5.73
2023-03-25T03:10:52.392Z,4.03
2023-03-25T03:13:23.531Z,4.50
2023-03-25T03:15:55.125Z,4.77
2023-03-25T03:18:27.544Z,4.67
2023-03-25T03:20:57.312Z,4.97
2023-03-25T03:23:26.812Z,4.50
2023-03-25T03:25:57.188Z,4.87
2023-03-25T03:28:26.190Z,5.93
2023-03-25T03:30:55.341Z,5.77
2023-03-25T03:33:26.079Z,5.47
2023-03-25T03:35:57.521Z,4.20
2023-03-25T03:38:26.732Z,5.97
2023-03-25T03:40:57.228Z,4.83
2023-03-25T03:43:26.900Z,4.93
2023-03-25T03:45:56.579Z,5.37
2023-03-25T03:48:25.371Z,5.10
2023-03-25T03:50:54.959Z,5.40
2023-03-25T03:53:24.353Z,4.80
2023-03-25T03:55:53.723Z,4.70
2023-03-25T03:58:25.485Z,5.20
2023-03-25T04:00:57.617Z,4.27
2023-03-25T04:03:28.535Z,4.37
2023-03-25T04:05:59.855Z,5.60
2023-03-25T04:08:29.324Z,6.07
2023-03-25T04:10:59.137Z,4.83
2023-03-25T04:13:31.023Z,5.63
2023-03-25T04:16:00.653Z,5.77
2023-03-25T04:18:29.184Z,5.27
2023-03-25T04:20:58.815Z,5.30
2023-03-25T04:23:30.025Z,4.97
2023-03-25T04:26:02.707Z,4.23
2023-03-25T04:28:32.967Z,5.37
2023-03-25T04:31:07.372Z,4.93
2023-03-25T04:33:36.038Z,6.10
2023-03-25T04:36:06.863Z,5.23
2023-03-25T04:38:37.784Z,5.37
2023-03-25T04:41:06.986Z,5.13
2023-03-25T04:43:39.312Z,6.03
2023-03-25T04:46:07.981Z,6.67
2023-03-25T04:48:41.456Z,5.73
2023-03-25T04:51:12.242Z,5.43
2023-03-25T04:53:40.702Z,5.60
2023-03-25T04:56:16.325Z,4.83
2023-03-25T04:58:46.345Z,5.30
2023-03-25T05:01:18.875Z,4.93
2023-03-25T05:03:50.212Z,5.57
2023-03-25T05:06:18.866Z,6.47
2023-03-25T05:08:47.358Z,4.80
2023-03-25T05:11:15.841Z,5.30
2023-03-25T05:13:45.771Z,5.13
2023-03-25T05:16:14.190Z,4.93
2023-03-25T05:18:42.635Z,5.90
2023-03-25T05:21:11.451Z,5.90
2023-03-25T05:23:41.896Z,5.60
2023-03-25T05:26:12.143Z,5.37
2023-03-25T05:28:40.824Z,5.27
2023-03-25T05:31:10.741Z,5.73
2023-03-25T05:33:42.922Z,4.83
2023-03-25T05:36:12.071Z,5.40
2023-03-25T05:38:41.938Z,4.77
2023-03-25T05:41:10.802Z,5.63
2023-03-25T05:43:39.308Z,4.70
2023-03-25T05:46:08.119Z,5.07
2023-03-25T05:48:38.083Z,4.30
2023-03-25T05:51:06.761Z,4.70
2023-03-25T05:53:35.211Z,4.90
2023-03-25T05:56:03.726Z,5.23
2023-03-25T05:58:32.776Z,5.80
2023-03-25T06:01:03.262Z,5.47
2023-03-25T06:03:34.350Z,4.03
2023-03-25T06:06:05.458Z,5.33
2023-03-25T06:08:35.283Z,4.13
2023-03-25T06:11:04.244Z,4.83
2023-03-25T06:13:34.047Z,4.27
2023-03-25T06:16:03.152Z,4.90
2023-03-25T06:18:31.660Z,4.90
2023-03-25T06:21:00.215Z,4.47
2023-03-25T06:23:30.068Z,5.33
2023-03-25T06:25:58.757Z,5.83
2023-03-25T06:28:27.143Z,4.47
2023-03-25T06:30:55.942Z,4.87
2023-03-25T06:33:43.421Z,4.20
2023-03-25T06:36:13.514Z,4.93
2023-03-25T06:38:44.190Z,5.20
2023-03-25T06:41:13.931Z,4.80
2023-03-25T06:43:42.536Z,4.40
2023-03-25T06:46:11.095Z,3.77
2023-03-25T06:48:45.943Z,4.33
2023-03-25T06:51:14.436Z,4.60
2023-03-25T06:53:44.517Z,5.17
2023-03-25T06:56:12.944Z,4.47
2023-03-25T06:58:42.152Z,4.70
2023-03-25T07:01:10.785Z,5.13
2023-03-25T07:03:39.378Z,4.83
2023-03-25T07:06:08.614Z,4.63
2023-03-25T07:08:37.088Z,4.77
2023-03-25T07:11:08.135Z,4.57
2023-03-25T07:13:36.741Z,5.23
2023-03-25T07:16:05.618Z,3.93
2023-03-25T07:18:34.120Z,4.93
2023-03-25T07:21:02.710Z,5.57
2023-03-25T07:23:31.567Z,4.33
2023-03-25T07:26:00.265Z,4.30
2023-03-25T07:28:30.467Z,4.00
2023-03-25T07:30:59.288Z,4.43
2023-03-25T07:33:27.858Z,5.00
2023-03-25T07:35:56.456Z,4.80
2023-03-25T07:38:25.153Z,4.30
2023-03-25T07:40:53.712Z,5.43
2023-03-25T07:43:22.449Z,3.67
2023-03-25T07:45:52.463Z,5.50
2023-03-25T07:48:22.868Z,4.40
2023-03-25T07:50:52.442Z,4.07
2023-03-25T07:53:21.228Z,4.40
2023-03-25T07:55:51.025Z,4.40
2023-03-25T07:58:19.946Z,3.93
2023-03-25T08:00:48.666Z,4.70
2023-03-25T08:03:18.910Z,4.87
2023-03-25T08:05:48.130Z,4.67
2023-03-25T08:08:16.705Z,5.03
2023-03-25T08:10:46.584Z,4.20
2023-03-25T08:13:15.225Z,4.53
2023-03-25T08:15:44.113Z,5.17
2023-03-25T08:18:12.919Z,4.40
2023-03-25T08:20:43.277Z,5.97
2023-03-25T08:23:12.654Z,4.40
2023-03-25T08:25:42.306Z,4.93
2023-03-25T08:28:10.820Z,4.77
2023-03-25T08:30:40.182Z,5.37
2023-03-25T08:33:08.773Z,4.70
2023-03-25T08:35:37.335Z,5.33
2023-03-25T08:38:07.428Z,4.20
2023-03-25T08:40:36.148Z,4.40
2023-03-25T08:43:05.714Z,4.60
2023-03-25T08:45:35.012Z,4.43
2023-03-25T08:48:03.793Z,4.73
2023-03-25T08:50:32.669Z,3.90
2023-03-25T08:53:01.207Z,4.93
2023-03-25T08:55:31.181Z,5.37
2023-03-25T08:58:02.121Z,4.90
2023-03-25T09:00:31.256Z,5.17
2023-03-25T09:03:00.997Z,5.63
2023-03-25T09:05:29.796Z,4.30
2023-03-25T09:07:58.521Z,5.47
2023-03-25T09:10:27.204Z,5.90
2023-03-25T09:12:57.088Z,5.20
2023-03-25T09:15:26.611Z,5.77
2023-03-25T09:17:55.976Z,5.60
2023-03-25T09:20:24.521Z,4.83
2023-03-25T09:22:53.572Z,4.87
2023-03-25T09:25:22.628Z,5.57
2023-03-25T09:27:51.918Z,4.47
2023-03-25T09:30:21.918Z,5.13
2023-03-25T09:32:50.575Z,5.93
2023-03-25T09:35:19.233Z,6.00
2023-03-25T09:37:52.006Z,5.57
2023-03-25T09:40:21.812Z,6.07
2023-03-25T09:42:59.737Z,5.13
2023-03-25T09:45:32.801Z,6.13
2023-03-25T09:48:02.247Z,4.67
2023-03-25T09:50:30.830Z,6.50
2023-03-25T09:52:59.761Z,5.20
2023-03-25T09:55:31.882Z,5.33
2023-03-25T09:58:02.939Z,5.23
2023-03-25T10:00:34.382Z,5.80
2023-03-25T10:03:06.222Z,4.70
2023-03-25T10:05:40.532Z,5.83
2023-03-25T10:08:13.581Z,4.57
2023-03-25T10:10:44.020Z,5.43
2023-03-25T10:13:14.369Z,5.43
2023-03-25T10:15:45.311Z,4.90
2023-03-25T10:18:34.374Z,5.33
2023-03-25T10:21:05.169Z,4.70
2023-03-25T10:23:35.616Z,5.27
2023-03-25T10:26:06.683Z,4.80
2023-03-25T10:28:37.467Z,5.50
2023-03-25T10:31:08.330Z,4.57
2023-03-25T10:33:37.905Z,5.30
2023-03-25T10:36:07.392Z,5.97
2023-03-25T10:38:36.333Z,5.77
2023-03-25T10:41:07.652Z,5.00
2023-03-25T10:43:36.573Z,5.93
2023-03-25T10:46:08.603Z,5.30
2023-03-25T10:48:37.313Z,4.90
2023-03-25T10:51:06.532Z,5.03
2023-03-25T10:53:35.358Z,5.40
2023-03-25T10:56:04.864Z,4.47
2023-03-25T10:58:33.480Z,5.27
2023-03-25T11:01:02.037Z,4.40
2023-03-25T11:03:32.842Z,5.93
2023-03-25T11:06:01.273Z,5.50
2023-03-25T11:08:29.756Z,5.60
2023-03-25T11:10:59.386Z,5.13
2023-03-25T11:13:27.936Z,4.73
2023-03-25T11:15:57.151Z,5.73
2023-03-25T11:18:27.347Z,6.17
2023-03-25T11:20:58.263Z,6.13
2023-03-25T11:23:31.055Z,5.63
2023-03-25T11:26:03.734Z,5.33
2023-03-25T11:28:35.492Z,5.70
2023-03-25T11:31:22.069Z,4.77
2023-03-25T11:34:02.096Z,5.47
2023-03-25T11:36:32.107Z,5.00
2023-03-25T11:39:01.346Z,4.97
2023-03-25T11:41:30.480Z,5.43
2023-03-25T11:43:59.562Z,4.27
2023-03-25T11:46:28.240Z,3.93
2023-03-25T11:48:56.768Z,5.10
2023-03-25T11:51:26.005Z,4.83
2023-03-25T11:53:57.691Z,5.07
2023-03-25T11:56:36.001Z,5.20
2023-03-25T11:59:04.890Z,6.20
2023-03-25T12:01:38.939Z,5.53
2023-03-25T12:04:07.903Z,5.10
2023-03-25T12:06:36.680Z,6.40
2023-03-25T12:09:09.334Z,5.17
2023-03-25T12:11:40.794Z,5.17
2023-03-25T12:14:14.447Z,4.83
2023-03-25T12:16:44.858Z,5.07
2023-03-25T12:19:15.268Z,5.50
2023-03-25T12:21:51.224Z,5.63
2023-03-25T12:24:27.404Z,4.97
2023-03-25T12:27:08.281Z,4.60
2023-03-25T12:29:37.928Z,6.10
2023-03-25T12:32:09.786Z,4.60
2023-03-25T12:34:40.492Z,5.13
2023-03-25T12:37:11.207Z,4.70
2023-03-25T12:39:46.231Z,4.90
2023-03-25T12:42:18.028Z,5.47
2023-03-25T12:44:53.021Z,5.40
2023-03-25T12:47:23.775Z,5.13
2023-03-25T12:50:00.370Z,5.13
2023-03-25T12:52:30.793Z,4.83
2023-03-25T12:55:07.895Z,6.57
2023-03-25T12:57:40.570Z,5.73
2023-03-25T13:00:16.166Z,5.10
2023-03-25T13:03:01.125Z,4.87
2023-03-25T13:05:31.456Z,6.10
2023-03-25T13:08:00.227Z,5.43
2023-03-25T13:10:32.426Z,4.53
2023-03-25T13:13:01.672Z,4.93
2023-03-25T13:15:31.115Z,5.70
2023-03-25T13:18:00.116Z,4.07
2023-03-25T13:20:29.331Z,5.20
2023-03-25T13:23:01.645Z,4.93
2023-03-25T13:25:33.455Z,5.07
2023-03-25T13:28:04.134Z,4.60
2023-03-25T13:30:33.429Z,5.60
2023-03-25T13:33:03.127Z,6.20
2023-03-25T13:35:36.153Z,5.53
2023-03-25T13:38:05.801Z,6.10
2023-03-25T13:40:36.225Z,6.23
2023-03-25T13:43:05.178Z,5.20
2023-03-25T13:45:34.619Z,5.37
2023-03-25T13:48:03.805Z,3.70
2023-03-25T13:50:32.492Z,5.80
2023-03-25T13:53:02.569Z,5.80
2023-03-25T13:55:34.001Z,4.33
2023-03-25T13:58:54.587Z,4.43
2023-03-25T14:01:29.227Z,3.80
2023-03-25T14:04:03.204Z,4.57
2023-03-25T14:06:39.568Z,4.90
2023-03-25T14:09:19.934Z,4.23
2023-03-25T14:11:48.434Z,3.77
2023-03-25T14:14:18.686Z,3.67
2023-03-25T14:16:47.550Z,3.97
2023-03-25T14:19:16.742Z,5.17
2023-03-25T14:21:45.733Z,4.70
2023-03-25T14:24:15.020Z,5.40
2023-03-25T14:26:44.551Z,5.00
2023-03-25T14:29:17.176Z,5.07
2023-03-25T14:34:45.061Z,5.00
2023-03-25T14:37:30.673Z,5.20
2023-03-25T14:40:00.785Z,5.43
2023-03-25T14:42:30.495Z,5.37
2023-03-25T14:45:17.541Z,6.50
2023-03-25T14:47:52.614Z,6.03
2023-03-25T14:50:35.821Z,6.73
2023-03-25T14:53:05.258Z,7.33
2023-03-25T14:55:34.566Z,6.30
2023-03-25T14:58:03.705Z,6.30
2023-03-25T15:00:34.333Z,6.23
2023-03-25T15:03:03.650Z,6.83
2023-03-25T15:05:32.411Z,4.63
2023-03-25T15:08:04.603Z,6.07
2023-03-25T15:10:34.614Z,6.10
2023-03-25T15:13:03.915Z,5.70
2023-03-25T15:15:33.789Z,6.43
2023-03-25T15:18:02.444Z,7.27
2023-03-25T15:20:36.043Z,5.10
2023-03-25T15:23:26.312Z,6.47
2023-03-25T15:25:55.788Z,5.27
2023-03-25T15:28:26.244Z,5.37
2023-03-25T15:31:00.556Z,5.17
2023-03-25T15:33:40.101Z,6.10
2023-03-25T15:36:13.729Z,6.17
2023-03-25T15:38:48.942Z,5.10
2023-03-25T15:41:24.693Z,5.93
2023-03-25T15:44:00.697Z,5.07
2023-03-25T15:46:40.583Z,5.10
2023-03-25T15:49:22.630Z,4.93
2023-03-25T15:51:54.121Z,5.50
2023-03-25T15:54:26.499Z,6.20
2023-03-25T15:56:57.411Z,5.63
2023-03-25T15:59:30.213Z,6.10
2023-03-25T16:01:58.756Z,6.13
2023-03-25T16:04:30.698Z,5.67
2023-03-25T16:06:59.251Z,6.10
2023-03-25T16:09:29.877Z,4.30
2023-03-25T16:12:00.505Z,5.50
2023-03-25T16:14:31.246Z,5.30
2023-03-25T16:17:00.243Z,5.87
2023-03-25T16:19:29.706Z,5.30
2023-03-25T16:21:58.128Z,6.03
2023-03-25T16:24:29.745Z,5.40
2023-03-25T16:26:59.810Z,7.00
2023-03-25T16:29:39.406Z,5.23
2023-03-25T16:32:08.125Z,5.90
2023-03-25T16:34:38.519Z,6.10
2023-03-25T16:37:07.273Z,6.23
2023-03-25T16:39:36.929Z,5.33
2023-03-25T16:42:08.166Z,6.07
2023-03-25T16:44:37.450Z,5.63
2023-03-25T16:47:07.206Z,5.23
2023-03-25T16:49:37.354Z,5.73
2023-03-25T16:52:12.238Z,5.13
2023-03-25T16:54:47.367Z,3.77
2023-03-25T16:57:18.431Z,3.93
2023-03-25T16:59:47.998Z,3.30
2023-03-25T17:02:27.788Z,4.50
2023-03-25T17:04:58.939Z,4.97
2023-03-25T17:07:28.292Z,5.67
2023-03-25T17:09:57.514Z,5.70
2023-03-25T17:12:28.092Z,5.43
2023-03-25T17:14:58.282Z,5.53
2023-03-25T17:17:34.569Z,5.47
2023-03-25T17:20:05.950Z,5.80
2023-03-25T17:22:34.719Z,6.33
2023-03-25T17:25:15.261Z,6.73
2023-03-25T17:27:48.418Z,6.10
2023-03-25T17:30:18.412Z,8.00
2023-03-25T17:32:47.165Z,6.73
2023-03-25T17:35:19.905Z,5.70
2023-03-25T17:37:51.521Z,7.53
2023-03-25T17:40:22.169Z,6.23
2023-03-25T17:42:52.105Z,6.30
2023-03-25T17:45:22.796Z,6.17
2023-03-25T17:47:52.138Z,5.40
2023-03-25T17:50:22.213Z,5.50
2023-03-25T17:52:50.754Z,6.17
2023-03-25T17:55:19.328Z,5.40
2023-03-25T17:57:49.772Z,5.70
2023-03-25T18:00:20.752Z,6.17
2023-03-25T18:02:49.549Z,6.57
2023-03-25T18:05:20.231Z,5.83
2023-03-25T18:07:48.729Z,4.77
2023-03-25T18:10:17.999Z,6.13
2023-03-25T18:12:47.288Z,6.13
2023-03-25T18:15:15.776Z,5.40
2023-03-25T18:17:45.652Z,5.87
2023-03-25T18:20:16.446Z,5.37
2023-03-25T18:22:45.072Z,5.20
2023-03-25T18:25:13.935Z,4.73
2023-03-25T18:27:44.314Z,4.83
2023-03-25T18:30:20.179Z,4.27
2023-03-25T18:32:50.903Z,4.97
2023-03-25T18:35:19.732Z,4.77
2023-03-25T18:37:48.832Z,5.73
2023-03-25T18:40:18.499Z,6.77
2023-03-25T18:42:51.819Z,4.93
2023-03-25T18:45:20.909Z,4.43
2023-03-25T18:47:51.172Z,4.90
2023-03-25T18:50:21.137Z,4.07
2023-03-25T18:52:49.925Z,5.23
2023-03-25T18:55:18.716Z,2.73
2023-03-25T18:57:48.606Z,2.90
2023-03-25T19:00:21.824Z,3.23
2023-03-25T19:02:53.243Z,3.33
2023-03-25T19:05:22.178Z,2.73
2023-03-25T19:07:50.807Z,2.83
2023-03-25T19:10:19.737Z,2.60
2023-03-25T19:12:48.277Z,2.93
2023-03-25T19:15:17.021Z,2.93
2023-03-25T19:17:45.589Z,2.87
2023-03-25T19:20:18.214Z,2.90
2023-03-25T19:22:47.415Z,2.87
2023-03-25T19:25:16.368Z,2.23
2023-03-25T19:27:45.326Z,3.27
2023-03-25T19:30:15.138Z,3.07
2023-03-25T19:32:44.360Z,3.40
2023-03-25T19:35:13.212Z,3.27
2023-03-25T19:37:47.581Z,3.37
2023-03-25T19:40:18.928Z,2.80
2023-03-25T19:42:47.993Z,3.00
2023-03-25T19:45:16.831Z,3.20
2023-03-25T19:47:45.960Z,3.40
2023-03-25T19:50:14.954Z,2.83
2023-03-25T19:52:47.403Z,3.33
2023-03-25T19:55:15.915Z,2.97
2023-03-25T19:57:44.842Z,2.80
2023-03-25T20:00:14.440Z,3.50
2023-03-25T20:02:43.124Z,2.87
2023-03-25T20:05:11.937Z,2.57
2023-03-25T20:07:40.615Z,2.30
2023-03-25T20:10:20.166Z,2.10
2023-03-25T20:12:49.901Z,2.70
2023-03-25T20:15:18.753Z,2.50
2023-03-25T20:17:47.419Z,2.10
2023-03-25T20:20:16.004Z,2.63
2023-03-25T20:22:45.665Z,2.10
2023-03-25T20:25:17.337Z,2.00
2023-03-25T20:27:47.516Z,2.13
2023-03-25T20:30:16.815Z,2.10
2023-03-25T20:32:48.150Z,2.33
2023-03-25T20:35:17.842Z,2.90
2023-03-25T20:37:47.057Z,1.83
2023-03-25T20:40:18.699Z,3.07
2023-03-25T20:42:49.048Z,2.20
2023-03-25T20:45:18.118Z,2.87
2023-03-25T20:47:47.163Z,2.33
2023-03-25T20:50:16.753Z,2.33
2023-03-25T20:52:45.261Z,2.63
2023-03-25T20:55:14.136Z,2.50
2023-03-25T20:57:44.076Z,3.10
2023-03-25T21:00:16.303Z,2.97
2023-03-25T21:02:45.041Z,2.60
2023-03-25T21:05:13.793Z,2.63
2023-03-25T21:07:42.505Z,3.83
2023-03-25T21:10:11.788Z,2.57
2023-03-25T21:12:44.400Z,3.30
2023-03-25T21:15:15.427Z,2.90
2023-03-25T21:17:44.509Z,3.03
2023-03-25T21:20:13.089Z,2.90
2023-03-25T21:22:44.443Z,2.70
2023-03-25T21:25:14.743Z,3.00
2023-03-25T21:27:45.288Z,4.13
2023-03-25T21:30:16.093Z,3.20
2023-03-25T21:32:47.407Z,3.00
2023-03-25T21:35:16.549Z,3.17
2023-03-25T21:37:45.154Z,3.00
2023-03-25T21:40:13.942Z,2.87
2023-03-25T21:42:42.415Z,3.63
2023-03-25T21:45:11.507Z,3.13
2023-03-25T21:47:41.603Z,3.07
2023-03-25T21:50:10.708Z,3.23
2023-03-25T21:52:43.138Z,2.77
2023-03-25T21:55:12.661Z,2.63
2023-03-25T21:57:45.034Z,2.60
2023-03-25T22:00:16.484Z,2.23
2023-03-25T22:02:46.672Z,2.47
2023-03-25T22:05:15.476Z,2.87
2023-03-25T22:07:43.977Z,2.20
2023-03-25T22:10:12.734Z,2.30
2023-03-25T22:12:41.280Z,3.30
2023-03-25T22:15:10.867Z,2.70
2023-03-25T22:17:39.418Z,2.60
2023-03-25T22:20:10.387Z,3.30
2023-03-25T22:22:38.744Z,3.23
2023-03-25T22:25:07.940Z,3.00
2023-03-25T22:27:36.400Z,2.97
2023-03-25T22:30:04.973Z,3.13
2023-03-25T22:32:35.677Z,3.40
2023-03-25T22:35:04.498Z,3.23
2023-03-25T22:37:36.935Z,3.40
2023-03-25T22:40:08.702Z,2.80
2023-03-25T22:42:37.410Z,2.30
2023-03-25T22:45:07.004Z,2.53
2023-03-25T22:47:36.334Z,2.93
2023-03-25T22:50:04.834Z,2.63
2023-03-25T22:52:34.767Z,2.70
2023-03-25T22:55:03.228Z,2.50
2023-03-25T22:57:31.772Z,2.47
2023-03-25T23:00:00.355Z,2.50
2023-03-25T23:02:28.780Z,2.40
2023-03-25T23:04:57.240Z,1.97
2023-03-25T23:07:26.543Z,2.70
2023-03-25T23:09:56.340Z,2.60
2023-03-25T23:12:25.459Z,2.30
2023-03-25T23:14:54.500Z,2.03
2023-03-25T23:17:23.023Z,2.80
2023-03-25T23:19:52.368Z,2.20
2023-03-25T23:22:21.275Z,2.73
2023-03-25T23:24:49.771Z,2.00
2023-03-25T23:27:19.552Z,2.20
2023-03-25T23:29:48.208Z,1.70
2023-03-25T23:32:16.836Z,2.70
2023-03-25T23:34:45.584Z,2.00
2023-03-25T23:37:14.527Z,2.30
2023-03-25T23:39:46.496Z,2.60
2023-03-25T23:42:15.124Z,3.03
2023-03-25T23:44:45.351Z,3.13
2023-03-25T23:47:14.031Z,4.00
2023-03-25T23:49:44.259Z,4.57
2023-03-25T23:52:13.672Z,3.43
2023-03-25T23:54:42.999Z,3.63
2023-03-25T23:57:11.451Z,4.10
2023-03-25T23:59:39.812Z,3.47
